KSLK/SLK METAR and TAF weather

Enter ICAO airport designator
Station Type Date Time Source
KSLK METAR 2021/03/06 00:51 UTC NOAA

KSLK 060051Z AUTO 31007KT 280V360 10SM BKN032 OVC060 M11/M17 A2976 RMK AO2 SLP115 T11061167 $


Station Type Date Time Source
KSLK Decoded METAR 2021/03/06 00:51 UTC NOAA

ADIRONDACK REGIONAL AIRPORT, NY, United States (KSLK) 44-24N 074-12W 498M
Mar 05, 2021 - 07:51 PM EST / 2021.03.06 0051 UTC
Wind: from the NW (310 degrees) at 8 MPH (7 KT) (direction variable):0
Visibility: 10 mile(s):0
Sky conditions: overcast
Temperature: 12.9 F (-10.6 C)
Windchill: 1 F (-17 C):1
Dew Point: 1.9 F (-16.7 C)
Relative Humidity: 60%
Pressure (altimeter): 29.76 in. Hg (1007 hPa)
ob: KSLK 060051Z AUTO 31007KT 280V360 10SM BKN032 OVC060 M11/M17 A2976 RMK AO2 SLP115 T11061167
cycle: 1

Station Type Date Time Source
KSLK TAF 2021/03/05 18:27 UTC NOAA

TAF KSLK 051725Z 0518/0618 25012G22KT P6SM VCSH BKN035
FM051900 28015G22KT P6SM VCSH BKN060
FM052200 31012G20KT P6SM VCSH OVC035
FM060200 29007KT P6SM BKN025
FM061600 28010G16KT P6SM BKN025

Example: see airport list